sensor_id;sensor_type;location;lat;lon;timestamp;P1;durP1;ratioP1;P2;durP2;ratioP2
14121;SDS011;7139;48.114;11.442;2022-09-03T00:01:12;3.50;;;2.73;;
14121;SDS011;7139;48.114;11.442;2022-09-03T00:03:45;4.17;;;2.30;;
14121;SDS011;7139;48.114;11.442;2022-09-03T00:06:16;2.47;;;2.27;;
14121;SDS011;7139;48.114;11.442;2022-09-03T00:08:50;3.03;;;2.23;;
14121;SDS011;7139;48.114;11.442;2022-09-03T00:11:24;3.20;;;2.40;;
14121;SDS011;7139;48.114;11.442;2022-09-03T00:13:56;2.97;;;2.70;;
14121;SDS011;7139;48.114;11.442;2022-09-03T00:16:27;2.60;;;2.40;;
14121;SDS011;7139;48.114;11.442;2022-09-03T00:18:56;3.83;;;2.50;;
14121;SDS011;7139;48.114;11.442;2022-09-03T00:21:30;3.00;;;2.70;;
14121;SDS011;7139;48.114;11.442;2022-09-03T00:24:04;2.77;;;2.40;;
14121;SDS011;7139;48.114;11.442;2022-09-03T00:26:35;2.70;;;2.50;;
14121;SDS011;7139;48.114;11.442;2022-09-03T00:29:05;6.60;;;2.70;;
14121;SDS011;7139;48.114;11.442;2022-09-03T00:31:37;2.60;;;2.40;;
14121;SDS011;7139;48.114;11.442;2022-09-03T00:34:08;2.87;;;2.57;;
14121;SDS011;7139;48.114;11.442;2022-09-03T00:36:40;2.60;;;2.40;;
14121;SDS011;7139;48.114;11.442;2022-09-03T00:39:11;3.77;;;2.80;;
14121;SDS011;7139;48.114;11.442;2022-09-03T00:41:43;2.97;;;2.47;;
14121;SDS011;7139;48.114;11.442;2022-09-03T00:47:17;2.67;;;2.47;;
14121;SDS011;7139;48.114;11.442;2022-09-03T00:49:54;2.70;;;2.30;;
14121;SDS011;7139;48.114;11.442;2022-09-03T00:52:31;2.90;;;2.47;;
14121;SDS011;7139;48.114;11.442;2022-09-03T00:55:12;3.37;;;2.60;;
14121;SDS011;7139;48.114;11.442;2022-09-03T00:57:50;4.37;;;2.70;;
14121;SDS011;7139;48.114;11.442;2022-09-03T01:00:30;3.03;;;2.80;;
14121;SDS011;7139;48.114;11.442;2022-09-03T01:03:00;3.57;;;2.70;;
14121;SDS011;7139;48.114;11.442;2022-09-03T01:05:36;2.73;;;2.30;;
14121;SDS011;7139;48.114;11.442;2022-09-03T01:08:12;2.60;;;2.40;;
14121;SDS011;7139;48.114;11.442;2022-09-03T01:10:53;3.27;;;2.80;;
14121;SDS011;7139;48.114;11.442;2022-09-03T01:13:23;3.10;;;2.40;;
14121;SDS011;7139;48.114;11.442;2022-09-03T01:15:58;2.70;;;2.50;;
14121;SDS011;7139;48.114;11.442;2022-09-03T01:18:37;3.77;;;2.60;;
14121;SDS011;7139;48.114;11.442;2022-09-03T01:21:14;4.27;;;2.87;;
14121;SDS011;7139;48.114;11.442;2022-09-03T01:24:10;2.97;;;2.67;;
14121;SDS011;7139;48.114;11.442;2022-09-03T01:27:04;3.37;;;2.83;;
14121;SDS011;7139;48.114;11.442;2022-09-03T01:29:42;4.27;;;2.80;;
14121;SDS011;7139;48.114;11.442;2022-09-03T01:32:18;3.50;;;2.60;;
14121;SDS011;7139;48.114;11.442;2022-09-03T01:34:52;3.03;;;2.80;;
14121;SDS011;7139;48.114;11.442;2022-09-03T01:37:29;4.10;;;2.80;;
14121;SDS011;7139;48.114;11.442;2022-09-03T01:40:07;3.10;;;2.80;;
14121;SDS011;7139;48.114;11.442;2022-09-03T01:42:42;3.37;;;3.07;;
14121;SDS011;7139;48.114;11.442;2022-09-03T01:48:41;3.00;;;2.70;;
14121;SDS011;7139;48.114;11.442;2022-09-03T01:51:16;3.43;;;3.10;;
14121;SDS011;7139;48.114;11.442;2022-09-03T01:53:52;3.03;;;2.80;;
14121;SDS011;7139;48.114;11.442;2022-09-03T01:56:43;4.10;;;3.00;;
14121;SDS011;7139;48.114;11.442;2022-09-03T01:59:25;4.57;;;2.67;;
14121;SDS011;7139;48.114;11.442;2022-09-03T02:01:57;2.90;;;2.70;;
14121;SDS011;7139;48.114;11.442;2022-09-03T02:04:29;3.33;;;3.00;;
14121;SDS011;7139;48.114;11.442;2022-09-03T02:06:57;3.97;;;2.73;;
14121;SDS011;7139;48.114;11.442;2022-09-03T02:09:26;3.60;;;2.60;;
14121;SDS011;7139;48.114;11.442;2022-09-03T02:11:54;2.97;;;2.77;;
14121;SDS011;7139;48.114;11.442;2022-09-03T02:14:24;3.77;;;2.80;;
14121;SDS011;7139;48.114;11.442;2022-09-03T02:16:52;4.03;;;2.73;;
14121;SDS011;7139;48.114;11.442;2022-09-03T02:19:21;4.23;;;3.23;;
14121;SDS011;7139;48.114;11.442;2022-09-03T02:21:51;3.47;;;3.17;;
14121;SDS011;7139;48.114;11.442;2022-09-03T02:24:20;3.23;;;2.90;;
14121;SDS011;7139;48.114;11.442;2022-09-03T02:26:47;3.10;;;2.87;;
14121;SDS011;7139;48.114;11.442;2022-09-03T02:29:14;3.80;;;2.70;;
14121;SDS011;7139;48.114;11.442;2022-09-03T02:31:42;3.60;;;3.10;;
14121;SDS011;7139;48.114;11.442;2022-09-03T02:34:09;2.83;;;2.63;;
14121;SDS011;7139;48.114;11.442;2022-09-03T02:36:37;3.80;;;3.13;;
14121;SDS011;7139;48.114;11.442;2022-09-03T02:39:07;3.23;;;2.93;;
14121;SDS011;7139;48.114;11.442;2022-09-03T02:41:34;3.77;;;3.33;;
14121;SDS011;7139;48.114;11.442;2022-09-03T02:44:01;3.73;;;2.93;;
14121;SDS011;7139;48.114;11.442;2022-09-03T02:46:33;3.13;;;2.80;;
14121;SDS011;7139;48.114;11.442;2022-09-03T02:49:04;4.03;;;3.33;;
14121;SDS011;7139;48.114;11.442;2022-09-03T02:51:32;3.53;;;3.17;;
14121;SDS011;7139;48.114;11.442;2022-09-03T02:54:00;5.23;;;3.20;;
14121;SDS011;7139;48.114;11.442;2022-09-03T02:56:28;3.73;;;3.40;;
14121;SDS011;7139;48.114;11.442;2022-09-03T02:58:54;3.63;;;3.10;;
14121;SDS011;7139;48.114;11.442;2022-09-03T03:01:22;3.50;;;3.10;;
14121;SDS011;7139;48.114;11.442;2022-09-03T03:03:49;4.50;;;3.50;;
14121;SDS011;7139;48.114;11.442;2022-09-03T03:06:16;3.70;;;3.40;;
14121;SDS011;7139;48.114;11.442;2022-09-03T03:08:44;3.70;;;3.40;;
14121;SDS011;7139;48.114;11.442;2022-09-03T03:11:11;4.00;;;3.20;;
14121;SDS011;7139;48.114;11.442;2022-09-03T03:13:43;3.93;;;3.23;;
14121;SDS011;7139;48.114;11.442;2022-09-03T03:16:11;3.67;;;3.37;;
14121;SDS011;7139;48.114;11.442;2022-09-03T03:18:39;3.80;;;3.50;;
14121;SDS011;7139;48.114;11.442;2022-09-03T03:21:06;3.33;;;3.00;;
14121;SDS011;7139;48.114;11.442;2022-09-03T03:23:34;3.73;;;3.37;;
14121;SDS011;7139;48.114;11.442;2022-09-03T03:26:02;3.30;;;3.00;;
14121;SDS011;7139;48.114;11.442;2022-09-03T03:28:30;3.17;;;2.97;;
14121;SDS011;7139;48.114;11.442;2022-09-03T03:30:59;3.30;;;3.10;;
14121;SDS011;7139;48.114;11.442;2022-09-03T03:33:30;4.17;;;3.40;;
14121;SDS011;7139;48.114;11.442;2022-09-03T03:35:57;3.37;;;3.07;;
14121;SDS011;7139;48.114;11.442;2022-09-03T03:38:28;4.27;;;3.07;;
14121;SDS011;7139;48.114;11.442;2022-09-03T03:40:54;3.67;;;3.07;;
14121;SDS011;7139;48.114;11.442;2022-09-03T03:43:21;3.60;;;3.30;;
14121;SDS011;7139;48.114;11.442;2022-09-03T03:45:54;3.40;;;3.10;;
14121;SDS011;7139;48.114;11.442;2022-09-03T03:48:23;3.23;;;3.00;;
14121;SDS011;7139;48.114;11.442;2022-09-03T03:50:50;4.93;;;3.23;;
14121;SDS011;7139;48.114;11.442;2022-09-03T03:53:17;3.97;;;3.67;;
14121;SDS011;7139;48.114;11.442;2022-09-03T03:55:52;4.00;;;3.57;;
14121;SDS011;7139;48.114;11.442;2022-09-03T03:58:21;3.60;;;3.30;;
14121;SDS011;7139;48.114;11.442;2022-09-03T04:00:47;3.73;;;3.43;;
14121;SDS011;7139;48.114;11.442;2022-09-03T04:03:14;3.70;;;3.40;;
14121;SDS011;7139;48.114;11.442;2022-09-03T04:05:42;3.50;;;3.20;;
14121;SDS011;7139;48.114;11.442;2022-09-03T04:08:09;3.30;;;2.80;;
14121;SDS011;7139;48.114;11.442;2022-09-03T04:10:37;3.70;;;3.40;;
14121;SDS011;7139;48.114;11.442;2022-09-03T04:13:03;3.63;;;3.27;;
14121;SDS011;7139;48.114;11.442;2022-09-03T04:15:30;3.70;;;3.20;;
14121;SDS011;7139;48.114;11.442;2022-09-03T04:17:57;3.50;;;3.20;;
14121;SDS011;7139;48.114;11.442;2022-09-03T04:20:24;4.03;;;3.50;;
14121;SDS011;7139;48.114;11.442;2022-09-03T04:22:52;3.57;;;3.07;;
14121;SDS011;7139;48.114;11.442;2022-09-03T04:25:19;3.53;;;3.23;;
14121;SDS011;7139;48.114;11.442;2022-09-03T04:27:46;4.17;;;3.37;;
14121;SDS011;7139;48.114;11.442;2022-09-03T04:30:12;2.93;;;2.73;;
14121;SDS011;7139;48.114;11.442;2022-09-03T04:32:39;4.70;;;3.33;;
14121;SDS011;7139;48.114;11.442;2022-09-03T04:35:18;3.23;;;3.03;;
14121;SDS011;7139;48.114;11.442;2022-09-03T04:37:45;3.60;;;3.30;;
14121;SDS011;7139;48.114;11.442;2022-09-03T04:40:14;5.00;;;3.60;;
14121;SDS011;7139;48.114;11.442;2022-09-03T04:42:41;3.30;;;3.10;;
14121;SDS011;7139;48.114;11.442;2022-09-03T04:45:08;3.83;;;3.53;;
14121;SDS011;7139;48.114;11.442;2022-09-03T04:47:35;3.80;;;3.27;;
14121;SDS011;7139;48.114;11.442;2022-09-03T04:50:02;4.23;;;2.93;;
14121;SDS011;7139;48.114;11.442;2022-09-03T04:52:30;4.87;;;3.10;;
14121;SDS011;7139;48.114;11.442;2022-09-03T04:54:57;4.67;;;3.27;;
14121;SDS011;7139;48.114;11.442;2022-09-03T04:57:26;3.47;;;3.17;;
14121;SDS011;7139;48.114;11.442;2022-09-03T04:59:58;3.27;;;3.07;;
14121;SDS011;7139;48.114;11.442;2022-09-03T05:02:25;3.97;;;3.13;;
14121;SDS011;7139;48.114;11.442;2022-09-03T05:04:51;3.53;;;3.27;;
14121;SDS011;7139;48.114;11.442;2022-09-03T05:07:18;3.33;;;3.03;;
14121;SDS011;7139;48.114;11.442;2022-09-03T05:09:45;4.13;;;3.10;;
14121;SDS011;7139;48.114;11.442;2022-09-03T05:12:12;3.47;;;3.17;;
14121;SDS011;7139;48.114;11.442;2022-09-03T05:14:40;3.30;;;3.00;;
14121;SDS011;7139;48.114;11.442;2022-09-03T05:17:06;3.13;;;2.83;;
14121;SDS011;7139;48.114;11.442;2022-09-03T05:19:33;3.83;;;3.13;;
14121;SDS011;7139;48.114;11.442;2022-09-03T05:22:00;3.73;;;3.43;;
14121;SDS011;7139;48.114;11.442;2022-09-03T05:24:27;3.40;;;3.10;;
14121;SDS011;7139;48.114;11.442;2022-09-03T05:26:53;3.30;;;3.00;;
14121;SDS011;7139;48.114;11.442;2022-09-03T05:29:20;3.90;;;3.60;;
14121;SDS011;7139;48.114;11.442;2022-09-03T05:31:49;3.83;;;3.37;;
14121;SDS011;7139;48.114;11.442;2022-09-03T05:34:16;3.57;;;3.27;;
14121;SDS011;7139;48.114;11.442;2022-09-03T05:36:42;5.77;;;3.20;;
14121;SDS011;7139;48.114;11.442;2022-09-03T05:39:10;3.87;;;3.57;;
14121;SDS011;7139;48.114;11.442;2022-09-03T05:41:37;4.07;;;3.47;;
14121;SDS011;7139;48.114;11.442;2022-09-03T05:44:04;3.47;;;3.17;;
14121;SDS011;7139;48.114;11.442;2022-09-03T05:46:31;4.47;;;3.43;;
14121;SDS011;7139;48.114;11.442;2022-09-03T05:49:04;3.70;;;3.40;;
14121;SDS011;7139;48.114;11.442;2022-09-03T05:51:32;3.60;;;3.30;;
14121;SDS011;7139;48.114;11.442;2022-09-03T05:53:59;3.57;;;3.27;;
14121;SDS011;7139;48.114;11.442;2022-09-03T05:56:28;4.20;;;3.43;;
14121;SDS011;7139;48.114;11.442;2022-09-03T05:58:56;3.40;;;3.10;;
14121;SDS011;7139;48.114;11.442;2022-09-03T06:01:25;6.00;;;2.97;;
14121;SDS011;7139;48.114;11.442;2022-09-03T06:03:54;3.57;;;3.27;;
14121;SDS011;7139;48.114;11.442;2022-09-03T06:06:24;3.60;;;3.30;;
14121;SDS011;7139;48.114;11.442;2022-09-03T06:08:51;3.50;;;3.20;;
14121;SDS011;7139;48.114;11.442;2022-09-03T06:11:19;3.50;;;3.20;;
14121;SDS011;7139;48.114;11.442;2022-09-03T06:13:52;3.67;;;3.27;;
14121;SDS011;7139;48.114;11.442;2022-09-03T06:16:18;4.30;;;3.43;;
14121;SDS011;7139;48.114;11.442;2022-09-03T06:18:46;5.03;;;3.67;;
14121;SDS011;7139;48.114;11.442;2022-09-03T06:21:13;3.97;;;3.60;;
14121;SDS011;7139;48.114;11.442;2022-09-03T06:23:41;5.20;;;3.30;;
14121;SDS011;7139;48.114;11.442;2022-09-03T06:26:08;3.80;;;3.50;;
14121;SDS011;7139;48.114;11.442;2022-09-03T06:28:36;5.37;;;3.33;;
14121;SDS011;7139;48.114;11.442;2022-09-03T06:31:06;3.40;;;3.10;;
14121;SDS011;7139;48.114;11.442;2022-09-03T06:33:35;6.03;;;3.40;;
14121;SDS011;7139;48.114;11.442;2022-09-03T06:36:03;3.70;;;3.30;;
14121;SDS011;7139;48.114;11.442;2022-09-03T06:38:32;3.80;;;3.17;;
14121;SDS011;7139;48.114;11.442;2022-09-03T06:41:02;3.60;;;3.20;;
14121;SDS011;7139;48.114;11.442;2022-09-03T06:43:31;3.53;;;2.90;;
14121;SDS011;7139;48.114;11.442;2022-09-03T06:46:00;3.67;;;3.10;;
14121;SDS011;7139;48.114;11.442;2022-09-03T06:48:29;3.53;;;3.20;;
14121;SDS011;7139;48.114;11.442;2022-09-03T06:50:58;4.17;;;3.10;;
14121;SDS011;7139;48.114;11.442;2022-09-03T06:53:27;3.60;;;2.70;;
14121;SDS011;7139;48.114;11.442;2022-09-03T06:55:55;5.73;;;3.10;;
14121;SDS011;7139;48.114;11.442;2022-09-03T06:58:27;3.97;;;3.40;;
14121;SDS011;7139;48.114;11.442;2022-09-03T07:00:59;3.13;;;2.93;;
14121;SDS011;7139;48.114;11.442;2022-09-03T07:03:26;3.27;;;2.80;;
14121;SDS011;7139;48.114;11.442;2022-09-03T07:05:53;3.77;;;3.40;;
14121;SDS011;7139;48.114;11.442;2022-09-03T07:08:24;3.73;;;3.43;;
14121;SDS011;7139;48.114;11.442;2022-09-03T07:10:51;3.17;;;2.97;;
14121;SDS011;7139;48.114;11.442;2022-09-03T07:13:18;3.30;;;3.10;;
14121;SDS011;7139;48.114;11.442;2022-09-03T07:15:46;4.00;;;3.30;;
14121;SDS011;7139;48.114;11.442;2022-09-03T07:18:13;4.03;;;2.90;;
14121;SDS011;7139;48.114;11.442;2022-09-03T07:20:40;3.80;;;3.13;;
14121;SDS011;7139;48.114;11.442;2022-09-03T07:23:06;4.73;;;3.33;;
14121;SDS011;7139;48.114;11.442;2022-09-03T07:25:33;3.50;;;3.20;;
14121;SDS011;7139;48.114;11.442;2022-09-03T07:28:00;3.70;;;3.30;;
14121;SDS011;7139;48.114;11.442;2022-09-03T07:30:27;3.90;;;3.50;;
14121;SDS011;7139;48.114;11.442;2022-09-03T07:32:55;3.73;;;3.13;;
14121;SDS011;7139;48.114;11.442;2022-09-03T07:35:26;3.87;;;3.10;;
14121;SDS011;7139;48.114;11.442;2022-09-03T07:37:53;3.60;;;3.33;;
14121;SDS011;7139;48.114;11.442;2022-09-03T07:40:20;4.23;;;2.90;;
14121;SDS011;7139;48.114;11.442;2022-09-03T07:42:46;3.90;;;3.50;;
14121;SDS011;7139;48.114;11.442;2022-09-03T07:45:13;3.80;;;3.50;;
14121;SDS011;7139;48.114;11.442;2022-09-03T07:47:45;3.40;;;3.10;;
14121;SDS011;7139;48.114;11.442;2022-09-03T07:50:14;4.63;;;3.60;;
14121;SDS011;7139;48.114;11.442;2022-09-03T07:52:41;3.73;;;3.43;;
14121;SDS011;7139;48.114;11.442;2022-09-03T07:55:08;3.70;;;3.40;;
14121;SDS011;7139;48.114;11.442;2022-09-03T07:57:36;3.60;;;3.30;;
14121;SDS011;7139;48.114;11.442;2022-09-03T08:00:03;5.70;;;3.60;;
14121;SDS011;7139;48.114;11.442;2022-09-03T08:02:31;4.53;;;3.90;;
14121;SDS011;7139;48.114;11.442;2022-09-03T08:04:58;4.00;;;3.60;;
14121;SDS011;7139;48.114;11.442;2022-09-03T08:07:26;5.13;;;4.00;;
14121;SDS011;7139;48.114;11.442;2022-09-03T08:09:54;5.13;;;3.80;;
14121;SDS011;7139;48.114;11.442;2022-09-03T08:12:20;5.77;;;4.03;;
14121;SDS011;7139;48.114;11.442;2022-09-03T08:14:48;4.50;;;3.80;;
14121;SDS011;7139;48.114;11.442;2022-09-03T08:17:15;4.53;;;4.10;;
14121;SDS011;7139;48.114;11.442;2022-09-03T08:19:42;4.10;;;3.80;;
14121;SDS011;7139;48.114;11.442;2022-09-03T08:22:10;5.20;;;4.70;;
14121;SDS011;7139;48.114;11.442;2022-09-03T08:24:38;4.83;;;4.43;;
14121;SDS011;7139;48.114;11.442;2022-09-03T08:27:06;4.90;;;4.53;;
14121;SDS011;7139;48.114;11.442;2022-09-03T08:29:32;4.40;;;4.10;;
14121;SDS011;7139;48.114;11.442;2022-09-03T08:31:59;4.43;;;4.13;;
14121;SDS011;7139;48.114;11.442;2022-09-03T08:34:26;5.20;;;3.70;;
14121;SDS011;7139;48.114;11.442;2022-09-03T08:36:53;4.03;;;3.73;;
14121;SDS011;7139;48.114;11.442;2022-09-03T08:39:19;4.20;;;3.80;;
14121;SDS011;7139;48.114;11.442;2022-09-03T08:41:52;4.17;;;3.77;;
14121;SDS011;7139;48.114;11.442;2022-09-03T08:44:29;4.50;;;4.10;;
14121;SDS011;7139;48.114;11.442;2022-09-03T08:47:04;4.70;;;4.30;;
14121;SDS011;7139;48.114;11.442;2022-09-03T08:49:37;4.97;;;4.33;;
14121;SDS011;7139;48.114;11.442;2022-09-03T08:52:14;4.60;;;4.10;;
14121;SDS011;7139;48.114;11.442;2022-09-03T08:54:46;4.20;;;3.80;;
14121;SDS011;7139;48.114;11.442;2022-09-03T08:57:17;4.63;;;3.90;;
14121;SDS011;7139;48.114;11.442;2022-09-03T08:59:52;4.77;;;3.37;;
14121;SDS011;7139;48.114;11.442;2022-09-03T09:02:22;3.67;;;3.27;;
14121;SDS011;7139;48.114;11.442;2022-09-03T09:04:58;3.70;;;3.40;;
14121;SDS011;7139;48.114;11.442;2022-09-03T09:07:31;3.07;;;2.87;;
14121;SDS011;7139;48.114;11.442;2022-09-03T09:10:05;3.30;;;3.00;;
14121;SDS011;7139;48.114;11.442;2022-09-03T09:12:40;5.00;;;2.70;;
14121;SDS011;7139;48.114;11.442;2022-09-03T09:15:17;3.40;;;2.83;;
14121;SDS011;7139;48.114;11.442;2022-09-03T09:17:57;2.83;;;2.60;;
14121;SDS011;7139;48.114;11.442;2022-09-03T09:20:32;2.80;;;2.60;;
14121;SDS011;7139;48.114;11.442;2022-09-03T09:23:07;26.23;;;4.40;;
14121;SDS011;7139;48.114;11.442;2022-09-03T09:25:40;6.83;;;3.20;;
14121;SDS011;7139;48.114;11.442;2022-09-03T09:28:15;4.93;;;2.70;;
14121;SDS011;7139;48.114;11.442;2022-09-03T09:30:44;3.13;;;2.83;;
14121;SDS011;7139;48.114;11.442;2022-09-03T09:33:12;3.03;;;2.70;;
14121;SDS011;7139;48.114;11.442;2022-09-03T09:35:39;2.80;;;2.60;;
14121;SDS011;7139;48.114;11.442;2022-09-03T09:38:07;2.73;;;2.53;;
14121;SDS011;7139;48.114;11.442;2022-09-03T09:40:35;2.60;;;2.40;;
14121;SDS011;7139;48.114;11.442;2022-09-03T09:43:04;2.83;;;2.37;;
14121;SDS011;7139;48.114;11.442;2022-09-03T09:45:36;2.80;;;2.30;;
14121;SDS011;7139;48.114;11.442;2022-09-03T09:48:07;5.03;;;2.40;;
14121;SDS011;7139;48.114;11.442;2022-09-03T09:50:38;3.63;;;2.20;;
14121;SDS011;7139;48.114;11.442;2022-09-03T09:53:06;2.60;;;2.40;;
14121;SDS011;7139;48.114;11.442;2022-09-03T09:55:50;2.87;;;2.67;;
14121;SDS011;7139;48.114;11.442;2022-09-03T09:58:18;2.57;;;2.37;;
14121;SDS011;7139;48.114;11.442;2022-09-03T10:00:59;2.80;;;2.27;;
14121;SDS011;7139;48.114;11.442;2022-09-03T10:03:29;2.60;;;2.40;;
14121;SDS011;7139;48.114;11.442;2022-09-03T10:06:05;2.60;;;2.40;;
14121;SDS011;7139;48.114;11.442;2022-09-03T10:08:52;2.50;;;2.20;;
14121;SDS011;7139;48.114;11.442;2022-09-03T10:11:30;2.90;;;2.00;;
14121;SDS011;7139;48.114;11.442;2022-09-03T10:13:58;2.10;;;2.00;;
14121;SDS011;7139;48.114;11.442;2022-09-03T10:16:28;2.97;;;2.20;;
14121;SDS011;7139;48.114;11.442;2022-09-03T10:19:02;2.10;;;2.00;;
14121;SDS011;7139;48.114;11.442;2022-09-03T10:21:35;2.20;;;2.00;;
14121;SDS011;7139;48.114;11.442;2022-09-03T10:24:24;2.10;;;1.90;;
14121;SDS011;7139;48.114;11.442;2022-09-03T10:27:07;2.27;;;2.07;;
14121;SDS011;7139;48.114;11.442;2022-09-03T10:29:36;2.10;;;1.90;;
14121;SDS011;7139;48.114;11.442;2022-09-03T10:34:57;3.00;;;1.87;;
14121;SDS011;7139;48.114;11.442;2022-09-03T10:37:36;2.40;;;2.20;;
14121;SDS011;7139;48.114;11.442;2022-09-03T10:40:10;2.43;;;2.23;;
14121;SDS011;7139;48.114;11.442;2022-09-03T10:42:51;2.77;;;2.27;;
14121;SDS011;7139;48.114;11.442;2022-09-03T10:45:27;2.97;;;2.10;;
14121;SDS011;7139;48.114;11.442;2022-09-03T10:48:18;3.10;;;2.10;;
14121;SDS011;7139;48.114;11.442;2022-09-03T10:50:56;2.45;;;1.90;;
14121;SDS011;7139;48.114;11.442;2022-09-03T10:53:31;3.72;;;2.35;;
14121;SDS011;7139;48.114;11.442;2022-09-03T10:56:15;2.25;;;2.05;;
14121;SDS011;7139;48.114;11.442;2022-09-03T10:58:55;1.90;;;1.80;;
14121;SDS011;7139;48.114;11.442;2022-09-03T11:01:32;2.28;;;2.10;;
14121;SDS011;7139;48.114;11.442;2022-09-03T11:04:15;2.20;;;2.10;;
14121;SDS011;7139;48.114;11.442;2022-09-03T11:06:49;2.65;;;2.45;;
14121;SDS011;7139;48.114;11.442;2022-09-03T11:09:19;2.70;;;2.30;;
14121;SDS011;7139;48.114;11.442;2022-09-03T11:11:50;2.00;;;1.90;;
14121;SDS011;7139;48.114;11.442;2022-09-03T11:14:23;2.53;;;2.33;;
14121;SDS011;7139;48.114;11.442;2022-09-03T11:16:58;2.33;;;2.13;;
14121;SDS011;7139;48.114;11.442;2022-09-03T11:19:32;2.80;;;2.53;;
14121;SDS011;7139;48.114;11.442;2022-09-03T11:22:02;5.78;;;2.10;;
14121;SDS011;7139;48.114;11.442;2022-09-03T11:24:31;10.45;;;2.75;;
14121;SDS011;7139;48.114;11.442;2022-09-03T11:27:01;2.63;;;2.22;;
14121;SDS011;7139;48.114;11.442;2022-09-03T11:29:40;2.65;;;2.10;;
14121;SDS011;7139;48.114;11.442;2022-09-03T11:32:15;5.10;;;2.30;;
14121;SDS011;7139;48.114;11.442;2022-09-03T11:34:50;2.58;;;2.20;;
14121;SDS011;7139;48.114;11.442;2022-09-03T11:37:19;3.15;;;2.10;;
14121;SDS011;7139;48.114;11.442;2022-09-03T11:39:57;2.65;;;1.95;;
14121;SDS011;7139;48.114;11.442;2022-09-03T11:42:30;2.85;;;2.10;;
14121;SDS011;7139;48.114;11.442;2022-09-03T11:45:32;2.42;;;2.22;;
14121;SDS011;7139;48.114;11.442;2022-09-03T11:48:00;3.50;;;1.80;;
14121;SDS011;7139;48.114;11.442;2022-09-03T11:50:29;3.05;;;1.70;;
14121;SDS011;7139;48.114;11.442;2022-09-03T11:53:06;2.60;;;2.40;;
14121;SDS011;7139;48.114;11.442;2022-09-03T11:55:45;1.95;;;1.85;;
14121;SDS011;7139;48.114;11.442;2022-09-03T11:58:18;2.63;;;2.42;;
14121;SDS011;7139;48.114;11.442;2022-09-03T12:00:48;3.95;;;3.30;;
14121;SDS011;7139;48.114;11.442;2022-09-03T12:03:20;2.83;;;2.35;;
14121;SDS011;7139;48.114;11.442;2022-09-03T12:05:54;2.35;;;2.00;;
14121;SDS011;7139;48.114;11.442;2022-09-03T12:11:24;2.40;;;2.20;;
14121;SDS011;7139;48.114;11.442;2022-09-03T12:14:01;4.57;;;2.20;;
14121;SDS011;7139;48.114;11.442;2022-09-03T12:16:43;3.92;;;2.75;;
14121;SDS011;7139;48.114;11.442;2022-09-03T12:19:30;1.58;;;1.48;;
14121;SDS011;7139;48.114;11.442;2022-09-03T12:22:03;3.47;;;2.35;;
14121;SDS011;7139;48.114;11.442;2022-09-03T12:24:30;3.65;;;3.20;;
14121;SDS011;7139;48.114;11.442;2022-09-03T12:27:01;1.90;;;1.80;;
14121;SDS011;7139;48.114;11.442;2022-09-03T12:29:30;1.58;;;1.48;;
14121;SDS011;7139;48.114;11.442;2022-09-03T12:32:04;2.90;;;2.10;;
14121;SDS011;7139;48.114;11.442;2022-09-03T12:34:33;2.70;;;2.50;;
14121;SDS011;7139;48.114;11.442;2022-09-03T12:37:00;2.22;;;1.30;;
14121;SDS011;7139;48.114;11.442;2022-09-03T12:39:28;1.52;;;1.42;;
14121;SDS011;7139;48.114;11.442;2022-09-03T12:41:57;3.55;;;1.90;;
14121;SDS011;7139;48.114;11.442;2022-09-03T12:44:28;1.90;;;1.58;;
14121;SDS011;7139;48.114;11.442;2022-09-03T12:47:00;1.60;;;1.50;;
14121;SDS011;7139;48.114;11.442;2022-09-03T12:49:35;3.50;;;3.00;;
14121;SDS011;7139;48.114;11.442;2022-09-03T12:52:04;1.75;;;1.65;;
14121;SDS011;7139;48.114;11.442;2022-09-03T12:54:41;1.73;;;1.60;;
14121;SDS011;7139;48.114;11.442;2022-09-03T12:57:13;1.85;;;1.75;;
14121;SDS011;7139;48.114;11.442;2022-09-03T12:59:45;1.65;;;1.55;;
14121;SDS011;7139;48.114;11.442;2022-09-03T13:02:16;2.83;;;1.70;;
14121;SDS011;7139;48.114;11.442;2022-09-03T13:04:46;3.15;;;2.38;;
14121;SDS011;7139;48.114;11.442;2022-09-03T13:07:19;2.35;;;2.17;;
14121;SDS011;7139;48.114;11.442;2022-09-03T13:09:58;1.90;;;1.80;;
14121;SDS011;7139;48.114;11.442;2022-09-03T13:12:29;2.05;;;1.88;;
14121;SDS011;7139;48.114;11.442;2022-09-03T13:15:03;2.05;;;1.85;;
14121;SDS011;7139;48.114;11.442;2022-09-03T13:17:47;2.70;;;1.95;;
14121;SDS011;7139;48.114;11.442;2022-09-03T13:20:32;2.03;;;1.85;;
14121;SDS011;7139;48.114;11.442;2022-09-03T13:23:10;2.53;;;2.35;;
14121;SDS011;7139;48.114;11.442;2022-09-03T13:25:52;2.45;;;2.25;;
14121;SDS011;7139;48.114;11.442;2022-09-03T13:28:30;1.83;;;1.73;;
14121;SDS011;7139;48.114;11.442;2022-09-03T13:31:21;2.40;;;1.90;;
14121;SDS011;7139;48.114;11.442;2022-09-03T13:33:54;1.98;;;1.65;;
14121;SDS011;7139;48.114;11.442;2022-09-03T13:36:27;2.45;;;1.80;;
14121;SDS011;7139;48.114;11.442;2022-09-03T13:39:01;1.80;;;1.70;;
14121;SDS011;7139;48.114;11.442;2022-09-03T13:41:34;1.85;;;1.70;;
14121;SDS011;7139;48.114;11.442;2022-09-03T13:44:06;2.13;;;1.77;;
14121;SDS011;7139;48.114;11.442;2022-09-03T13:46:39;2.00;;;1.60;;
14121;SDS011;7139;48.114;11.442;2022-09-03T13:49:12;1.73;;;1.63;;
14121;SDS011;7139;48.114;11.442;2022-09-03T13:52:17;2.88;;;1.73;;
14121;SDS011;7139;48.114;11.442;2022-09-03T13:54:50;1.90;;;1.70;;
14121;SDS011;7139;48.114;11.442;2022-09-03T13:57:25;1.63;;;1.45;;
14121;SDS011;7139;48.114;11.442;2022-09-03T13:59:59;2.20;;;1.67;;
14121;SDS011;7139;48.114;11.442;2022-09-03T14:02:32;2.03;;;1.83;;
14121;SDS011;7139;48.114;11.442;2022-09-03T14:05:11;2.00;;;1.80;;
14121;SDS011;7139;48.114;11.442;2022-09-03T14:07:46;1.80;;;1.70;;
14121;SDS011;7139;48.114;11.442;2022-09-03T14:10:23;2.00;;;1.90;;
14121;SDS011;7139;48.114;11.442;2022-09-03T14:13:03;2.08;;;1.90;;
14121;SDS011;7139;48.114;11.442;2022-09-03T14:15:39;4.82;;;2.40;;
14121;SDS011;7139;48.114;11.442;2022-09-03T14:18:12;8.90;;;2.73;;
14121;SDS011;7139;48.114;11.442;2022-09-03T14:20:48;4.93;;;2.50;;
14121;SDS011;7139;48.114;11.442;2022-09-03T14:23:24;5.27;;;2.80;;
14121;SDS011;7139;48.114;11.442;2022-09-03T14:25:56;3.20;;;2.30;;
14121;SDS011;7139;48.114;11.442;2022-09-03T14:28:29;5.50;;;2.63;;
14121;SDS011;7139;48.114;11.442;2022-09-03T14:31:01;5.00;;;2.70;;
14121;SDS011;7139;48.114;11.442;2022-09-03T14:33:37;4.63;;;2.20;;
14121;SDS011;7139;48.114;11.442;2022-09-03T14:36:11;3.27;;;2.07;;
14121;SDS011;7139;48.114;11.442;2022-09-03T14:38:54;5.00;;;2.30;;
14121;SDS011;7139;48.114;11.442;2022-09-03T14:41:34;4.77;;;2.20;;
14121;SDS011;7139;48.114;11.442;2022-09-03T14:44:33;4.43;;;2.30;;
14121;SDS011;7139;48.114;11.442;2022-09-03T14:47:22;3.40;;;2.20;;
14121;SDS011;7139;48.114;11.442;2022-09-03T14:50:07;2.33;;;1.70;;
14121;SDS011;7139;48.114;11.442;2022-09-03T14:52:52;2.20;;;2.00;;
14121;SDS011;7139;48.114;11.442;2022-09-03T14:55:28;3.77;;;1.87;;
14121;SDS011;7139;48.114;11.442;2022-09-03T14:58:17;2.17;;;1.90;;
14121;SDS011;7139;48.114;11.442;2022-09-03T15:00:53;3.33;;;2.00;;
14121;SDS011;7139;48.114;11.442;2022-09-03T15:06:27;4.87;;;1.83;;
14121;SDS011;7139;48.114;11.442;2022-09-03T15:09:22;2.90;;;1.90;;
14121;SDS011;7139;48.114;11.442;2022-09-03T15:11:58;3.37;;;1.63;;
14121;SDS011;7139;48.114;11.442;2022-09-03T15:14:28;3.17;;;2.00;;
14121;SDS011;7139;48.114;11.442;2022-09-03T15:17:12;5.63;;;2.10;;
14121;SDS011;7139;48.114;11.442;2022-09-03T15:20:00;2.33;;;1.63;;
14121;SDS011;7139;48.114;11.442;2022-09-03T15:22:40;4.30;;;1.87;;
14121;SDS011;7139;48.114;11.442;2022-09-03T15:25:21;2.57;;;1.60;;
14121;SDS011;7139;48.114;11.442;2022-09-03T15:27:59;2.40;;;1.60;;
14121;SDS011;7139;48.114;11.442;2022-09-03T15:30:38;2.30;;;1.43;;
14121;SDS011;7139;48.114;11.442;2022-09-03T15:33:14;2.87;;;1.33;;